Kezdőlap
METAR-TAF:

METAR-TAF

Repülőterek :

Saint-Pierre repülőtér

Saint-Pierre, Saint-Pierre és Miquelon

földrajzi szélesség: 46-46N, földrajzi hosszúság: 056-10W, magasság: 3 m

Jelenlegi meteorológiai megfigyelések

A jelentés 10 órával és 13 perccel ezelõtt készült, 21:00 UTC
Keleti szél 14 kt
Hőmérséklet 4°C
Páratartalom 81%
Légköri nyomás 1002 hPa
Látótávolság 10 km, vagy több
Szakadozott felhőzet 4600 lábon

METAR: LFVP 212100Z 10014KT 9999 BKN046 04/01 Q1002 NOSIG

Idő: 05:13 (07:13 UTC)

Előrejelzés

A jelentés 14 órával és 13 perccel ezelõtt készült, 17:00 UTC
Az előrejelzés 21-én 18 óra UTC és 22-én 03 óra UTC között érvényes
Keleti szél 20 kt
Látótávolság 10 km, vagy több
Szakadozott felhőzet 4300 lábon
21-én 18 óra UTC és 21-én 20 óra UTC között fokozatosan kialakuló
Szakadozott felhőzet 1500 lábon
Borult 3000 lábon
enyhe esõ

TAF: LFVP 211700Z 2118/2203 08020KT 9999 BKN043 BECMG 2118/2120 -RA BKN015 OVC030

Meteorológiai megfigyelések és előrejelzések több, mint 4000 repülőtéren (METAR és TAF jelentéseket).

A térképen piros és sárga pontok jelzik az elérhető meteorológiai állomásokat.

Mozgassa az egeret a pont fölött, hogy megjelenjen az állomás neve.

Azután kattintson az időjárási megfigyelések és előrejelzések megtekintéséhez.

A térkép megváltoztatása: kattintson a fekete keresztel jelölt zöld gombra ráközelítéshez, a vonallal jelölt zöld gombra távolításhoz, vagy a zöld nyilakra a szomszédos térképek eléréséhez.


METAR-TAF: